createdAt,value
2023-02-25T00:02:39.270Z,98064.19
2023-02-25T00:05:19.783Z,98056.25
2023-02-25T00:08:04.816Z,98056.03
2023-02-25T00:10:55.518Z,98052.09
2023-02-25T00:13:44.831Z,98061.78
2023-02-25T00:16:33.378Z,98064.97
2023-02-25T00:19:25.254Z,98061.50
2023-02-25T00:22:03.807Z,98062.19
2023-02-25T00:24:48.921Z,98059.88
2023-02-25T00:27:41.117Z,98061.53
2023-02-25T00:30:26.769Z,98052.53
2023-02-25T00:33:20.257Z,98052.19
2023-02-25T00:36:01.864Z,98044.34
2023-02-25T00:38:48.520Z,98037.00
2023-02-25T00:41:29.627Z,98038.78
2023-02-25T00:44:15.167Z,98023.69
2023-02-25T00:47:06.538Z,98031.38
2023-02-25T00:49:50.583Z,98015.28
2023-02-25T00:52:49.619Z,97999.78
2023-02-25T00:55:36.322Z,98004.00
2023-02-25T00:58:41.288Z,97994.91
2023-02-25T01:01:47.503Z,97987.91
2023-02-25T01:04:24.415Z,97980.00
2023-02-25T01:07:06.014Z,97979.28
2023-02-25T01:09:52.827Z,97963.91
2023-02-25T01:12:40.737Z,97957.97
2023-02-25T01:15:36.746Z,97954.91
2023-02-25T01:18:25.765Z,97952.94
2023-02-25T01:21:25.834Z,97942.13
2023-02-25T01:24:03.797Z,97944.31
2023-02-25T01:26:52.096Z,97936.28
2023-02-25T01:29:45.756Z,97926.72
2023-02-25T01:32:26.814Z,97932.66
2023-02-25T01:35:17.518Z,97927.44
2023-02-25T01:38:06.133Z,97922.75
2023-02-25T01:40:57.515Z,97921.81
2023-02-25T01:43:41.551Z,97914.56
2023-02-25T01:46:32.267Z,97916.66
2023-02-25T01:49:34.273Z,97901.41
2023-02-25T01:52:30.687Z,97895.09
2023-02-25T01:55:15.811Z,97882.28
2023-02-25T01:58:06.276Z,97879.25
2023-02-25T02:00:55.918Z,97876.25
2023-02-25T02:03:43.792Z,97872.88
2023-02-25T02:06:30.959Z,97857.28
2023-02-25T02:09:09.673Z,97860.31
2023-02-25T02:12:01.794Z,97860.19
2023-02-25T02:14:45.008Z,97861.13
2023-02-25T02:17:52.621Z,97861.56
2023-02-25T02:20:52.600Z,97866.84
2023-02-25T02:23:48.527Z,97853.31
2023-02-25T02:26:47.808Z,97850.66
2023-02-25T02:29:39.778Z,97839.38
2023-02-25T02:32:35.496Z,97823.06
2023-02-25T02:35:31.588Z,97825.13
2023-02-25T02:38:40.662Z,97823.59
2023-02-25T02:41:39.664Z,97827.19
2023-02-25T02:45:14.854Z,97821.19
2023-02-25T02:48:08.820Z,97818.31
2023-02-25T02:50:55.559Z,97810.44
2023-02-25T02:54:06.046Z,97816.00
2023-02-25T02:56:43.808Z,97827.25
2023-02-25T03:00:07.795Z,97828.75
2023-02-25T03:02:50.776Z,97831.81
2023-02-25T03:05:38.994Z,97840.31
2023-02-25T03:08:24.827Z,97832.50
2023-02-25T03:11:07.515Z,97827.94
2023-02-25T03:13:43.932Z,97839.66
2023-02-25T03:16:45.451Z,97838.34
2023-02-25T03:19:48.784Z,97845.53
2023-02-25T03:22:56.205Z,97853.97
2023-02-25T03:26:07.643Z,97852.16
2023-02-25T03:28:59.570Z,97850.06
2023-02-25T03:32:11.317Z,97848.31
2023-02-25T03:35:12.865Z,97851.50
2023-02-25T03:37:56.747Z,97858.50
2023-02-25T03:40:41.789Z,97857.59
2023-02-25T03:43:29.654Z,97853.19
2023-02-25T03:46:18.787Z,97847.56
2023-02-25T03:49:02.924Z,97852.47
2023-02-25T03:51:48.788Z,97850.34
2023-02-25T03:54:34.039Z,97860.50
2023-02-25T03:57:18.798Z,97850.84
2023-02-25T03:59:57.851Z,97857.22
2023-02-25T04:02:43.402Z,97856.66
2023-02-25T04:05:23.837Z,97857.47
2023-02-25T04:08:22.840Z,97847.22
2023-02-25T04:11:12.342Z,97858.75
2023-02-25T04:14:02.467Z,97861.97
2023-02-25T04:16:51.246Z,97860.00
2023-02-25T04:19:36.398Z,97857.94
2023-02-25T04:22:14.862Z,97862.25
2023-02-25T04:24:55.923Z,97855.47
2023-02-25T04:27:36.079Z,97863.75
2023-02-25T04:30:15.801Z,97871.06
2023-02-25T04:32:56.826Z,97880.78
2023-02-25T04:35:53.580Z,97882.34
2023-02-25T04:38:45.131Z,97900.59
2023-02-25T04:41:25.676Z,97921.56
2023-02-25T04:44:10.612Z,97922.16
2023-02-25T04:46:54.836Z,97928.44
2023-02-25T04:49:27.036Z,97915.56
2023-02-25T04:52:09.134Z,97926.41
2023-02-25T04:54:58.521Z,97926.22
2023-02-25T04:57:47.078Z,97910.59
2023-02-25T05:00:35.679Z,97910.00
2023-02-25T05:03:18.756Z,97915.81
2023-02-25T05:06:09.756Z,97917.94
2023-02-25T05:08:48.469Z,97924.53
2023-02-25T05:11:31.390Z,97921.19
2023-02-25T05:14:15.681Z,97929.75
2023-02-25T05:17:03.710Z,97926.56
2023-02-25T05:19:44.840Z,97946.31
2023-02-25T05:22:22.956Z,97948.19
2023-02-25T05:25:06.873Z,97963.03
2023-02-25T05:27:45.778Z,97964.47
2023-02-25T05:30:21.600Z,97961.88
2023-02-25T05:33:28.051Z,97961.78
2023-02-25T05:36:11.376Z,97951.03
2023-02-25T05:39:04.956Z,97944.00
2023-02-25T05:41:51.651Z,97942.72
2023-02-25T05:44:34.423Z,97954.50
2023-02-25T05:47:19.207Z,97960.50
2023-02-25T05:50:01.945Z,97962.75
2023-02-25T05:52:44.258Z,97964.97
2023-02-25T05:55:26.872Z,97970.91
2023-02-25T05:58:09.746Z,97987.59
2023-02-25T06:01:03.200Z,97985.31
2023-02-25T06:03:45.141Z,97998.28
2023-02-25T06:06:31.659Z,98008.31
2023-02-25T06:09:24.300Z,98014.69
2023-02-25T06:12:09.880Z,98030.94
2023-02-25T06:14:49.093Z,98026.75
2023-02-25T06:17:35.922Z,98035.94
2023-02-25T06:20:17.254Z,98030.84
2023-02-25T06:22:57.347Z,98030.03
2023-02-25T06:25:32.997Z,98035.84
2023-02-25T06:28:19.685Z,98030.69
2023-02-25T06:31:02.139Z,98028.38
2023-02-25T06:33:50.803Z,98037.97
2023-02-25T06:36:33.814Z,98038.88
2023-02-25T06:39:17.616Z,98041.94
2023-02-25T06:42:06.116Z,98049.63
2023-02-25T06:44:46.764Z,98079.94
2023-02-25T06:47:32.258Z,98084.09
2023-02-25T06:50:19.232Z,98080.44
2023-02-25T06:52:57.433Z,98083.72
2023-02-25T06:55:43.860Z,98088.19
2023-02-25T06:58:31.879Z,98094.72
2023-02-25T07:01:20.083Z,98101.97
2023-02-25T07:04:03.799Z,98108.47
2023-02-25T07:06:44.425Z,98101.97
2023-02-25T07:09:30.414Z,98099.88
2023-02-25T07:12:20.586Z,98103.03
2023-02-25T07:15:09.467Z,98106.25
2023-02-25T07:17:49.724Z,98124.34
2023-02-25T07:20:40.215Z,98125.81
2023-02-25T07:23:26.310Z,98125.81
2023-02-25T07:26:10.869Z,98126.09
2023-02-25T07:28:57.730Z,98123.69
2023-02-25T07:31:48.087Z,98121.38
2023-02-25T07:34:25.650Z,98110.41
2023-02-25T07:37:09.328Z,98107.53
2023-02-25T07:39:58.119Z,98092.16
2023-02-25T07:42:39.768Z,98095.97
2023-02-25T07:45:22.899Z,98104.25
2023-02-25T07:48:18.985Z,98089.19
2023-02-25T07:50:59.165Z,98093.63
2023-02-25T07:53:47.696Z,98095.84
2023-02-25T07:56:28.938Z,98095.97
2023-02-25T07:59:15.183Z,98098.66
2023-02-25T08:02:04.495Z,98104.25
2023-02-25T08:04:50.548Z,98101.81
2023-02-25T08:07:37.135Z,98114.19
2023-02-25T08:10:21.024Z,98140.53
2023-02-25T08:13:05.021Z,98141.00
2023-02-25T08:15:53.684Z,98132.34
2023-02-25T08:18:32.377Z,98131.75
2023-02-25T08:21:07.904Z,98129.53
2023-02-25T08:23:45.565Z,98114.34
2023-02-25T08:26:32.231Z,98111.00
2023-02-25T08:29:23.554Z,98128.28
2023-02-25T08:32:28.111Z,98123.84
2023-02-25T08:35:06.641Z,98129.13
2023-02-25T08:38:03.122Z,98134.91
2023-02-25T08:40:54.655Z,98147.44
2023-02-25T08:43:38.874Z,98148.03
2023-02-25T08:46:20.037Z,98138.97
2023-02-25T08:49:04.766Z,98139.19
2023-02-25T08:51:47.754Z,98146.78
2023-02-25T08:54:29.020Z,98155.50
2023-02-25T08:57:17.905Z,98167.63
2023-02-25T09:00:06.851Z,98145.41
2023-02-25T09:02:51.225Z,98152.66
2023-02-25T09:05:30.070Z,98175.00
2023-02-25T09:08:21.333Z,98175.81
2023-02-25T09:11:11.737Z,98170.31
2023-02-25T09:14:05.752Z,98171.59
2023-02-25T09:16:41.233Z,98176.53
2023-02-25T09:19:27.809Z,98175.47
2023-02-25T09:22:05.966Z,98175.00
2023-02-25T09:25:04.160Z,98163.88
2023-02-25T09:27:57.233Z,98155.31
2023-02-25T09:30:47.831Z,98155.50
2023-02-25T09:33:38.881Z,98170.22
2023-02-25T09:36:27.676Z,98186.78
2023-02-25T09:39:10.640Z,98199.38
2023-02-25T09:42:11.963Z,98202.91
2023-02-25T09:44:56.375Z,98189.84
2023-02-25T09:47:49.180Z,98181.19
2023-02-25T09:50:32.563Z,98160.56
2023-02-25T09:53:44.317Z,98153.09
2023-02-25T09:56:31.653Z,98140.72
2023-02-25T09:59:23.690Z,98132.28
2023-02-25T10:02:33.000Z,98133.66
2023-02-25T10:05:25.110Z,98135.31
2023-02-25T10:08:49.225Z,98129.56
2023-02-25T10:12:20.249Z,98138.06
2023-02-25T10:15:18.882Z,98150.06
2023-02-25T10:18:25.096Z,98171.38
2023-02-25T10:21:43.168Z,98149.09
2023-02-25T10:24:57.333Z,98134.13
2023-02-25T10:27:40.002Z,98120.31
2023-02-25T10:30:43.407Z,98133.47
2023-02-25T10:33:43.758Z,98154.69
2023-02-25T10:36:43.043Z,98160.91
2023-02-25T10:39:20.792Z,98170.22
2023-02-25T10:41:58.297Z,98164.75
2023-02-25T10:44:43.288Z,98174.38
2023-02-25T10:47:46.591Z,98174.47
2023-02-25T10:50:45.544Z,98179.25
2023-02-25T10:53:37.450Z,98186.03
2023-02-25T10:56:15.513Z,98176.03
2023-02-25T10:59:30.038Z,98166.91
2023-02-25T11:02:27.423Z,98167.59
2023-02-25T11:05:08.354Z,98185.88
2023-02-25T11:07:55.755Z,98176.25
2023-02-25T11:10:37.075Z,98176.88
2023-02-25T11:13:38.244Z,98178.69
2023-02-25T11:16:27.352Z,98170.06
2023-02-25T11:19:25.514Z,98171.00
2023-02-25T11:22:13.401Z,98176.28
2023-02-25T11:25:04.028Z,98176.84
2023-02-25T11:27:54.137Z,98165.50
2023-02-25T11:30:49.273Z,98173.78
2023-02-25T11:33:38.948Z,98163.22
2023-02-25T11:36:23.876Z,98160.19
2023-02-25T11:39:16.916Z,98162.63
2023-02-25T11:42:07.952Z,98144.84
2023-02-25T11:45:04.760Z,98139.81
2023-02-25T11:47:54.616Z,98130.91
2023-02-25T11:50:49.052Z,98135.72
2023-02-25T11:53:49.619Z,98120.94
2023-02-25T11:56:59.866Z,98112.91
2023-02-25T12:00:07.862Z,98123.75
2023-02-25T12:03:06.265Z,98122.31
2023-02-25T12:06:17.498Z,98131.19
2023-02-25T12:09:52.848Z,98115.53
2023-02-25T12:13:25.784Z,98126.66
2023-02-25T12:16:29.238Z,98123.34
2023-02-25T12:19:57.452Z,98132.94
2023-02-25T12:22:53.800Z,98129.78
2023-02-25T12:26:07.717Z,98130.31
2023-02-25T12:29:15.961Z,98121.13
2023-02-25T12:32:36.361Z,98120.16
2023-02-25T12:35:52.812Z,98120.22
2023-02-25T12:38:54.237Z,98113.25
2023-02-25T12:41:47.164Z,98129.81
2023-02-25T12:45:02.786Z,98151.31
2023-02-25T12:48:43.987Z,98140.22
2023-02-25T12:51:50.557Z,98155.78
2023-02-25T12:54:58.916Z,98153.72
2023-02-25T12:58:20.063Z,98157.78
2023-02-25T13:01:24.074Z,98149.25
2023-02-25T13:04:18.038Z,98132.78
2023-02-25T13:07:24.382Z,98147.34
2023-02-25T13:10:04.369Z,98145.22
2023-02-25T13:13:33.690Z,98146.88
2023-02-25T13:16:33.800Z,98145.28
2023-02-25T13:19:28.408Z,98138.50
2023-02-25T13:22:26.839Z,98140.84
2023-02-25T13:25:19.372Z,98149.69
2023-02-25T13:28:24.084Z,98139.47
2023-02-25T13:31:10.715Z,98151.44
2023-02-25T13:34:08.133Z,98157.19
2023-02-25T13:37:08.893Z,98164.09
2023-02-25T13:40:33.237Z,98164.19
2023-02-25T13:43:54.148Z,98167.16
2023-02-25T13:46:59.365Z,98170.13
2023-02-25T13:49:56.619Z,98184.94
2023-02-25T13:52:57.528Z,98186.31
2023-02-25T13:56:01.058Z,98190.59
2023-02-25T13:58:48.360Z,98201.16
2023-02-25T14:01:45.578Z,98195.63
2023-02-25T14:04:35.887Z,98200.50
2023-02-25T14:07:38.982Z,98199.84
2023-02-25T14:10:39.661Z,98197.03
2023-02-25T14:13:27.831Z,98209.88
2023-02-25T14:16:53.771Z,98215.72
2023-02-25T14:19:42.148Z,98211.69
2023-02-25T14:23:14.252Z,98221.09
2023-02-25T14:26:14.513Z,98224.94
2023-02-25T14:29:47.457Z,98225.28
2023-02-25T14:32:41.636Z,98230.44
2023-02-25T14:35:50.819Z,98238.31
2023-02-25T14:38:55.028Z,98232.22
2023-02-25T14:42:12.584Z,98233.84
2023-02-25T14:45:21.480Z,98237.47
2023-02-25T14:48:27.052Z,98225.47
2023-02-25T14:51:35.060Z,98219.00
2023-02-25T14:55:11.777Z,98193.66
2023-02-25T14:58:18.291Z,98141.44
2023-02-25T15:01:34.429Z,98137.97
2023-02-25T15:05:03.978Z,98185.84
2023-02-25T15:08:17.913Z,98206.97
2023-02-25T15:11:09.135Z,98212.84
2023-02-25T15:14:13.722Z,98227.78
2023-02-25T15:17:06.714Z,98220.66
2023-02-25T15:20:17.530Z,98208.69
2023-02-25T15:23:17.704Z,98231.06
2023-02-25T15:26:48.071Z,98236.94
2023-02-25T15:29:58.050Z,98224.03
2023-02-25T15:33:00.616Z,98213.16
2023-02-25T15:36:14.053Z,98216.00
2023-02-25T15:38:58.803Z,98217.16
2023-02-25T15:42:05.838Z,98217.16
2023-02-25T15:45:29.537Z,98221.47
2023-02-25T15:48:27.769Z,98230.47
2023-02-25T15:51:09.205Z,98245.47
2023-02-25T15:53:56.560Z,98239.78
2023-02-25T15:56:50.676Z,98242.66
2023-02-25T15:59:45.168Z,98242.19
2023-02-25T16:03:03.694Z,98265.25
2023-02-25T16:05:47.882Z,98261.28
2023-02-25T16:08:44.762Z,98251.38
2023-02-25T16:11:50.841Z,98250.34
2023-02-25T16:14:42.397Z,98249.28
2023-02-25T16:17:45.577Z,98253.97
2023-02-25T16:20:40.287Z,98257.47
2023-02-25T16:23:24.109Z,98253.38
2023-02-25T16:26:28.106Z,98265.25
2023-02-25T16:29:25.384Z,98260.84
2023-02-25T16:32:07.593Z,98256.38
2023-02-25T16:34:48.656Z,98258.53
2023-02-25T16:37:53.338Z,98251.09
2023-02-25T16:40:37.519Z,98260.03
2023-02-25T16:43:44.901Z,98265.38
2023-02-25T16:46:29.874Z,98275.94
2023-02-25T16:49:51.777Z,98276.53
2023-02-25T16:52:43.332Z,98279.28
2023-02-25T16:55:23.878Z,98289.63
2023-02-25T16:58:18.107Z,98289.34
2023-02-25T17:01:04.762Z,98289.22
2023-02-25T17:03:51.213Z,98282.81
2023-02-25T17:06:50.875Z,98289.06
2023-02-25T17:09:32.906Z,98295.56
2023-02-25T17:12:22.415Z,98307.53
2023-02-25T17:15:24.545Z,98309.78
2023-02-25T17:18:03.482Z,98323.31
2023-02-25T17:20:48.837Z,98326.16
2023-02-25T17:23:32.847Z,98328.03
2023-02-25T17:26:24.066Z,98346.94
2023-02-25T17:29:09.831Z,98335.59
2023-02-25T17:32:00.898Z,98330.03
2023-02-25T17:34:43.760Z,98349.38
2023-02-25T17:37:26.500Z,98379.31
2023-02-25T17:40:22.677Z,98382.13
2023-02-25T17:43:39.410Z,98395.47
2023-02-25T17:46:45.896Z,98409.50
2023-02-25T17:49:39.932Z,98383.28
2023-02-25T17:52:39.243Z,98376.25
2023-02-25T17:55:55.557Z,98373.75
2023-02-25T17:58:44.268Z,98391.25
2023-02-25T18:01:55.509Z,98383.66
2023-02-25T18:04:53.541Z,98377.69
2023-02-25T18:07:34.387Z,98375.59
2023-02-25T18:10:29.995Z,98358.16
2023-02-25T18:13:30.733Z,98351.88
2023-02-25T18:16:25.625Z,98353.47
2023-02-25T18:19:08.760Z,98348.56
2023-02-25T18:21:51.946Z,98358.00
2023-02-25T18:24:36.719Z,98377.50
2023-02-25T18:27:29.317Z,98389.47
2023-02-25T18:30:27.068Z,98390.50
2023-02-25T18:33:14.719Z,98391.19
2023-02-25T18:35:59.701Z,98400.28
2023-02-25T18:38:52.264Z,98408.56
2023-02-25T18:41:38.682Z,98395.22
2023-02-25T18:44:35.763Z,98379.25
2023-02-25T18:47:22.415Z,98370.09
2023-02-25T18:50:11.633Z,98377.47
2023-02-25T18:53:11.055Z,98387.25
2023-02-25T18:55:57.847Z,98398.81
2023-02-25T18:58:37.929Z,98404.16
2023-02-25T19:01:32.697Z,98420.28
2023-02-25T19:04:22.189Z,98419.47
2023-02-25T19:07:07.232Z,98433.06
2023-02-25T19:09:51.647Z,98449.78
2023-02-25T19:12:37.788Z,98440.50
2023-02-25T19:15:31.004Z,98456.53
2023-02-25T19:18:33.272Z,98456.94
2023-02-25T19:21:37.715Z,98466.00
2023-02-25T19:24:34.640Z,98459.06
2023-02-25T19:27:31.988Z,98466.31
2023-02-25T19:30:15.650Z,98480.09
2023-02-25T19:32:55.714Z,98479.31
2023-02-25T19:35:42.940Z,98481.19
2023-02-25T19:38:20.902Z,98465.50
2023-02-25T19:41:10.753Z,98475.38
2023-02-25T19:43:58.614Z,98467.16
2023-02-25T19:46:48.579Z,98459.31
2023-02-25T19:49:38.588Z,98457.91
2023-02-25T19:52:27.687Z,98458.34
2023-02-25T19:55:14.221Z,98443.75
2023-02-25T19:57:58.182Z,98456.31
2023-02-25T20:00:46.256Z,98450.97
2023-02-25T20:03:30.249Z,98447.66
2023-02-25T20:06:29.079Z,98442.75
2023-02-25T20:09:10.185Z,98441.13
2023-02-25T20:12:00.101Z,98433.38
2023-02-25T20:14:41.507Z,98437.03
2023-02-25T20:17:28.116Z,98454.34
2023-02-25T20:20:26.787Z,98470.38
2023-02-25T20:23:10.382Z,98475.75
2023-02-25T20:25:54.873Z,98461.56
2023-02-25T20:28:40.023Z,98473.31
2023-02-25T20:31:22.902Z,98487.50
2023-02-25T20:34:19.385Z,98493.03
2023-02-25T20:37:23.042Z,98480.75
2023-02-25T20:40:04.971Z,98478.94
2023-02-25T20:42:43.610Z,98484.50
2023-02-25T20:45:30.187Z,98480.00
2023-02-25T20:48:25.991Z,98469.69
2023-02-25T20:51:18.723Z,98448.16
2023-02-25T20:54:06.510Z,98450.41
2023-02-25T20:56:55.622Z,98459.84
2023-02-25T20:59:34.367Z,98468.88
2023-02-25T21:02:17.564Z,98482.69
2023-02-25T21:05:05.367Z,98486.19
2023-02-25T21:07:50.004Z,98488.63
2023-02-25T21:10:32.720Z,98501.19
2023-02-25T21:13:22.085Z,98485.75
2023-02-25T21:16:07.516Z,98471.59
2023-02-25T21:18:56.216Z,98497.69
2023-02-25T21:21:37.694Z,98505.72
2023-02-25T21:24:24.171Z,98507.59
2023-02-25T21:27:14.627Z,98506.75
2023-02-25T21:29:53.117Z,98510.66
2023-02-25T21:32:35.766Z,98512.09
2023-02-25T21:35:27.287Z,98502.25
2023-02-25T21:38:17.775Z,98483.13
2023-02-25T21:41:01.609Z,98480.03
2023-02-25T21:43:49.835Z,98497.91
2023-02-25T21:46:38.466Z,98504.69
2023-02-25T21:49:31.895Z,98510.03
2023-02-25T21:52:13.737Z,98508.81
2023-02-25T21:54:58.052Z,98527.72
2023-02-25T21:57:42.756Z,98534.69
2023-02-25T22:00:24.819Z,98540.88
2023-02-25T22:03:06.433Z,98544.38
2023-02-25T22:05:51.678Z,98528.13
2023-02-25T22:08:35.285Z,98534.09
2023-02-25T22:11:15.836Z,98527.72
2023-02-25T22:13:56.507Z,98530.59
2023-02-25T22:16:43.865Z,98531.22
2023-02-25T22:19:42.065Z,98524.44
2023-02-25T22:22:28.218Z,98512.09
2023-02-25T22:25:15.871Z,98511.50
2023-02-25T22:28:07.612Z,98513.97
2023-02-25T22:30:54.190Z,98518.47
2023-02-25T22:33:33.821Z,98515.16
2023-02-25T22:36:18.701Z,98523.19
2023-02-25T22:39:02.751Z,98519.06
2023-02-25T22:41:50.721Z,98508.81
2023-02-25T22:44:40.837Z,98506.53
2023-02-25T22:47:28.470Z,98517.22
2023-02-25T22:50:04.764Z,98541.88
2023-02-25T22:52:50.962Z,98544.97
2023-02-25T22:55:35.856Z,98542.28
2023-02-25T22:58:28.437Z,98545.38
2023-02-25T23:01:09.656Z,98532.66
2023-02-25T23:03:57.383Z,98523.41
2023-02-25T23:06:50.988Z,98508.81
2023-02-25T23:09:40.759Z,98508.41
2023-02-25T23:12:33.291Z,98514.16
2023-02-25T23:15:25.307Z,98522.34
2023-02-25T23:18:14.075Z,98511.66
2023-02-25T23:20:58.768Z,98516.16
2023-02-25T23:23:42.696Z,98521.94
2023-02-25T23:26:17.460Z,98515.94
2023-02-25T23:29:05.755Z,98512.25
2023-02-25T23:31:56.058Z,98517.59
2023-02-25T23:34:46.546Z,98515.31
2023-02-25T23:37:38.537Z,98498.91
2023-02-25T23:40:38.959Z,98506.72
2023-02-25T23:43:36.766Z,98529.88
2023-02-25T23:46:17.288Z,98525.16
2023-02-25T23:49:07.548Z,98512.41
2023-02-25T23:51:50.042Z,98510.59
2023-02-25T23:54:33.275Z,98501.72
2023-02-25T23:57:16.143Z,98489.00
